Time;durP1;ratioP1;P1;durP2;ratioP2;P2;SDS_P1;SDS_P2;PMS_P1;PMS_P2;Temp;Humidity;BMP_temperature;BMP_pressure;BME280_temperature;BME280_humidity;BME280_pressure;Samples;Min_cycle;Max_cycle;Signal;HPM_P1;HPM_P2
2024/03/31 00:01:03;;;;;;;49.25;31.35;;;23.60;52.00;;;;;;10394624;28;20544;-63
2024/03/31 00:06:05;;;;;;;45.30;30.42;;;23.70;51.70;;;;;;10389535;28;20050;-65
2024/03/31 00:11:11;;;;;;;43.55;29.67;;;23.70;51.70;;;;;;10387033;28;20073;-63
2024/03/31 00:16:13;;;;;;;44.85;29.83;;;23.50;51.90;;;;;;10392125;28;20133;-64
2024/03/31 00:21:14;;;;;;;41.67;28.65;;;23.50;51.90;;;;;;10396554;28;20046;-63
2024/03/31 00:26:17;;;;;;;44.45;29.55;;;23.60;51.70;;;;;;10401875;28;20052;-61
2024/03/31 00:31:19;;;;;;;41.55;26.83;;;23.50;52.00;;;;;;10398713;28;20042;-59
2024/03/31 00:36:20;;;;;;;41.50;28.10;;;23.50;51.80;;;;;;10399460;28;20137;-58
2024/03/31 00:41:23;;;;;;;39.13;28.33;;;23.20;52.70;;;;;;10393339;28;20415;-60
2024/03/31 00:46:25;;;;;;;42.00;28.73;;;23.40;52.30;;;;;;10397025;28;20052;-61
2024/03/31 00:51:26;;;;;;;40.85;27.67;;;23.50;51.90;;;;;;10394255;28;20051;-64
2024/03/31 00:56:29;;;;;;;39.38;26.88;;;23.50;52.00;;;;;;10390849;28;20049;-64
2024/03/31 01:01:31;;;;;;;42.38;26.55;;;23.50;52.00;;;;;;10391712;28;20054;-64
2024/03/31 01:06:33;;;;;;;39.47;26.73;;;23.50;51.80;;;;;;10397901;28;20060;-64
2024/03/31 01:11:36;;;;;;;36.22;26.08;;;23.40;52.00;;;;;;10397318;28;20041;-64
2024/03/31 01:16:37;;;;;;;37.30;26.30;;;23.30;52.10;;;;;;10400840;28;20515;-65
2024/03/31 01:21:39;;;;;;;35.58;25.42;;;23.40;51.90;;;;;;10393349;28;20081;-61
2024/03/31 01:26:42;;;;;;;35.20;24.40;;;23.30;52.10;;;;;;10391313;28;20104;-60
2024/03/31 01:31:43;;;;;;;32.85;23.40;;;23.30;51.90;;;;;;10392179;28;20140;-58
2024/03/31 01:36:45;;;;;;;34.45;24.85;;;23.30;52.00;;;;;;10396174;28;20046;-62
2024/03/31 01:41:49;;;;;;;35.05;25.42;;;23.30;51.90;;;;;;10396568;28;20091;-58
2024/03/31 01:46:50;;;;;;;35.13;23.95;;;23.40;51.70;;;;;;10398475;28;20414;-59
2024/03/31 01:51:52;;;;;;;36.28;24.35;;;23.40;51.50;;;;;;10394028;28;20050;-64
2024/03/31 01:56:55;;;;;;;33.05;23.05;;;23.50;51.40;;;;;;10392336;28;20060;-61
2024/03/31 02:01:56;;;;;;;32.05;22.90;;;23.40;51.80;;;;;;10389292;28;20050;-64
2024/03/31 02:06:58;;;;;;;31.20;22.08;;;23.40;51.70;;;;;;10386789;28;20569;-64
2024/03/31 02:12:01;;;;;;;27.77;20.73;;;23.30;52.30;;;;;;10387216;28;20057;-64
2024/03/31 02:17:02;;;;;;;31.15;21.83;;;23.30;51.60;;;;;;10389188;28;20076;-64
2024/03/31 02:22:04;;;;;;;29.58;21.67;;;23.30;51.50;;;;;;10390730;28;20124;-64
2024/03/31 02:27:07;;;;;;;28.35;20.85;;;23.40;51.40;;;;;;10397104;28;20423;-60
2024/03/31 02:32:09;;;;;;;26.63;20.25;;;23.30;51.40;;;;;;10390239;28;20046;-59
2024/03/31 02:37:10;;;;;;;29.58;20.95;;;23.30;51.50;;;;;;10390377;28;20046;-59
2024/03/31 02:42:13;;;;;;;27.80;20.25;;;23.30;51.40;;;;;;10387071;28;20054;-62
2024/03/31 02:47:17;;;;;;;28.67;19.75;;;23.20;51.50;;;;;;10394535;28;20046;-59
2024/03/31 02:52:19;;;;;;;26.15;19.40;;;23.20;51.70;;;;;;10401192;28;20067;-60
2024/03/31 02:57:22;;;;;;;26.17;19.17;;;23.10;52.40;;;;;;10393937;28;20037;-60
2024/03/31 03:02:24;;;;;;;27.75;18.85;;;23.20;51.50;;;;;;10397603;28;20061;-59
2024/03/31 03:07:25;;;;;;;25.70;19.25;;;22.90;51.90;;;;;;10389979;28;20038;-61
2024/03/31 03:12:28;;;;;;;25.20;18.25;;;22.10;54.00;;;;;;10389019;28;20053;-57
2024/03/31 03:17:30;;;;;;;25.25;18.08;;;21.70;55.60;;;;;;10387852;28;20148;-61
2024/03/31 03:22:33;;;;;;;25.98;18.65;;;21.60;55.90;;;;;;10392094;28;20045;-63
2024/03/31 03:27:36;;;;;;;25.23;18.27;;;21.60;55.90;;;;;;10385854;28;20389;-64
2024/03/31 03:32:38;;;;;;;22.30;16.85;;;21.60;55.80;;;;;;10390296;28;20080;-64
2024/03/31 03:37:39;;;;;;;26.35;18.33;;;21.60;55.80;;;;;;10391619;28;20049;-63
2024/03/31 03:42:42;;;;;;;23.00;17.10;;;21.60;55.70;;;;;;10390861;28;20046;-65
2024/03/31 03:47:44;;;;;;;23.33;16.33;;;21.90;55.40;;;;;;10391692;28;20049;-63
2024/03/31 03:52:51;;;;;;;23.17;16.75;;;22.20;54.30;;;;;;10387128;28;20050;-63
2024/03/31 03:57:54;;;;;;;22.80;16.33;;;22.40;53.70;;;;;;10384439;28;20108;-64
2024/03/31 04:02:59;;;;;;;21.92;16.23;;;22.40;53.70;;;;;;10394929;28;20046;-63
2024/03/31 04:08:01;;;;;;;20.42;15.57;;;22.30;53.70;;;;;;10387828;28;20052;-64
2024/03/31 04:13:04;;;;;;;20.75;15.50;;;22.30;53.90;;;;;;10397231;28;20046;-64
2024/03/31 04:18:06;;;;;;;20.80;15.43;;;22.20;54.00;;;;;;10398001;28;20050;-64
2024/03/31 04:23:08;;;;;;;19.95;14.48;;;22.10;54.40;;;;;;10399748;28;20054;-64
2024/03/31 04:28:11;;;;;;;19.73;14.68;;;22.00;54.50;;;;;;10395820;28;20051;-60
2024/03/31 04:33:12;;;;;;;16.65;14.00;;;21.90;54.60;;;;;;10393843;28;20050;-63
2024/03/31 04:38:23;;;;;;;17.33;13.80;;;22.10;54.20;;;;;;10393643;28;20045;-62
2024/03/31 04:43:26;;;;;;;;;;;22.40;53.50;;;;;;10398138;28;20041;-61
2024/03/31 04:48:28;;;;;;;17.35;13.45;;;22.60;52.90;;;;;;10399393;28;19947;-61
2024/03/31 04:53:29;;;;;;;17.15;13.07;;;22.80;52.70;;;;;;10396466;28;20412;-60
2024/03/31 04:58:32;;;;;;;15.63;12.52;;;22.90;52.40;;;;;;10394436;28;20060;-60
2024/03/31 05:03:34;;;;;;;15.73;12.35;;;23.00;52.20;;;;;;10394155;28;20320;-61
2024/03/31 05:08:35;;;;;;;15.65;12.38;;;22.90;52.40;;;;;;10388199;28;20444;-61
2024/03/31 05:13:38;;;;;;;15.95;12.00;;;22.80;52.60;;;;;;10391431;28;20113;-60
2024/03/31 05:18:40;;;;;;;14.77;11.50;;;22.90;52.50;;;;;;10401553;28;20136;-59
2024/03/31 05:23:45;;;;;;;14.98;11.93;;;23.10;52.00;;;;;;10401286;28;20042;-60
2024/03/31 05:28:49;;;;;;;15.95;11.98;;;23.20;51.70;;;;;;10400327;28;20045;-57
2024/03/31 05:33:51;;;;;;;13.32;10.80;;;23.40;51.50;;;;;;10404224;28;20073;-57
2024/03/31 05:38:52;;;;;;;14.82;11.55;;;23.30;51.60;;;;;;10393560;28;20075;-59
2024/03/31 05:43:55;;;;;;;14.02;10.70;;;23.30;51.60;;;;;;10395061;28;20045;-62
2024/03/31 05:48:57;;;;;;;12.48;10.45;;;23.30;51.60;;;;;;10391989;28;20071;-62
2024/03/31 05:53:58;;;;;;;13.10;10.55;;;23.40;51.40;;;;;;10389797;28;20043;-61
2024/03/31 05:59:02;;;;;;;12.77;10.45;;;23.50;51.30;;;;;;10394347;28;20048;-60
2024/03/31 06:04:04;;;;;;;12.27;9.88;;;23.50;51.50;;;;;;10398471;28;20034;-59
2024/03/31 06:09:06;;;;;;;12.00;9.57;;;23.50;51.20;;;;;;10392972;28;20049;-60
2024/03/31 06:14:09;;;;;;;12.07;9.60;;;23.50;51.30;;;;;;10392984;28;20132;-61
2024/03/31 06:19:10;;;;;;;11.02;9.15;;;23.60;51.20;;;;;;10390363;28;20042;-60
2024/03/31 06:24:12;;;;;;;13.35;9.73;;;23.50;51.30;;;;;;10401326;28;20051;-62
2024/03/31 06:29:15;;;;;;;11.32;8.88;;;23.50;51.30;;;;;;10396641;28;20149;-61
2024/03/31 06:34:19;;;;;;;10.80;8.95;;;23.60;51.20;;;;;;10396312;28;20076;-62
2024/03/31 06:39:21;;;;;;;10.18;8.45;;;23.70;51.10;;;;;;10401221;28;20045;-64
2024/03/31 06:44:24;;;;;;;11.73;9.20;;;23.70;51.00;;;;;;10396371;28;20137;-64
2024/03/31 06:49:25;;;;;;;11.52;8.75;;;23.80;51.20;;;;;;10394108;28;20049;-64
2024/03/31 06:54:27;;;;;;;11.23;8.82;;;23.60;51.20;;;;;;10389285;28;20049;-64
2024/03/31 06:59:30;;;;;;;10.35;8.10;;;23.80;51.00;;;;;;10390061;28;20050;-55
2024/03/31 07:04:31;;;;;;;9.27;7.65;;;23.80;51.00;;;;;;10393370;28;20042;-61
2024/03/31 07:09:33;;;;;;;9.98;7.30;;;23.80;51.40;;;;;;10391143;28;20049;-58
2024/03/31 07:14:36;;;;;;;9.00;7.35;;;23.80;51.80;;;;;;10386048;28;20053;-60
2024/03/31 07:19:39;;;;;;;8.73;6.80;;;23.80;52.00;;;;;;10391362;28;20496;-59
2024/03/31 07:24:40;;;;;;;11.02;6.30;;;23.80;51.90;;;;;;10389939;28;20056;-61
2024/03/31 07:29:44;;;;;;;7.75;6.10;;;23.70;52.30;;;;;;10391986;28;20045;-61
2024/03/31 07:34:46;;;;;;;8.52;5.68;;;23.90;52.50;;;;;;10392330;28;20050;-59
2024/03/31 07:39:47;;;;;;;7.68;5.63;;;23.90;52.20;;;;;;10395397;28;20140;-59
2024/03/31 07:44:50;;;;;;;6.38;5.22;;;23.80;52.50;;;;;;10392377;28;20042;-53
2024/03/31 07:49:52;;;;;;;9.35;4.75;;;23.70;52.90;;;;;;10401826;28;20115;-58
2024/03/31 07:54:53;;;;;;;6.47;4.90;;;23.60;54.20;;;;;;10401259;28;20053;-61
2024/03/31 07:59:56;;;;;;;7.15;4.80;;;23.70;54.70;;;;;;10401468;28;20053;-59
2024/03/31 08:04:58;;;;;;;8.82;4.70;;;23.70;55.10;;;;;;10401142;28;20053;-59
2024/03/31 08:10:01;;;;;;;13.43;5.00;;;23.80;55.00;;;;;;10397863;28;20504;-59
2024/03/31 08:15:04;;;;;;;6.35;4.47;;;23.90;54.50;;;;;;10393050;28;20155;-61
2024/03/31 08:20:07;;;;;;;11.27;4.45;;;23.80;54.70;;;;;;10392829;28;20056;-57
2024/03/31 08:25:08;;;;;;;7.47;4.35;;;24.00;54.00;;;;;;10389186;28;20041;-58
2024/03/31 08:30:12;;;;;;;10.13;4.43;;;24.10;51.20;;;;;;10391479;28;20049;-59
2024/03/31 08:35:15;;;;;;;16.90;4.45;;;24.10;51.20;;;;;;10395720;28;20436;-58
2024/03/31 08:40:16;;;;;;;33.88;8.35;;;23.70;50.70;;;;;;10400006;28;20045;-56
2024/03/31 08:45:22;;;;;;;24.42;8.10;;;23.80;51.20;;;;;;10398764;28;20132;-57
2024/03/31 08:50:24;;;;;;;30.17;8.30;;;23.80;51.10;;;;;;10403988;28;20085;-62
2024/03/31 08:55:26;;;;;;;24.08;7.68;;;24.00;51.00;;;;;;10400862;28;20045;-58
2024/03/31 09:00:29;;;;;;;17.20;7.43;;;23.80;49.80;;;;;;10405056;28;20052;-56
2024/03/31 09:05:30;;;;;;;29.45;8.00;;;23.60;50.80;;;;;;10402045;28;20041;-60
2024/03/31 09:10:32;;;;;;;28.88;8.23;;;23.50;51.50;;;;;;10403779;28;20124;-58
2024/03/31 09:15:35;;;;;;;22.15;7.53;;;23.40;52.00;;;;;;10399354;28;20140;-57
2024/03/31 09:20:37;;;;;;;20.63;7.45;;;23.30;52.20;;;;;;10395137;28;20056;-54
2024/03/31 09:25:39;;;;;;;19.95;7.47;;;23.20;52.50;;;;;;10404220;28;20038;-61
2024/03/31 09:30:41;;;;;;;24.42;7.25;;;23.20;52.00;;;;;;10396436;28;20053;-61
2024/03/31 09:35:43;;;;;;;16.75;6.93;;;23.30;51.90;;;;;;10399559;28;20751;-59
2024/03/31 09:40:45;;;;;;;19.13;6.80;;;23.30;51.70;;;;;;10401929;28;20057;-61
2024/03/31 09:45:48;;;;;;;16.88;6.45;;;23.60;52.00;;;;;;10401999;28;20037;-61
2024/03/31 09:50:51;;;;;;;19.42;6.25;;;23.10;52.90;;;;;;10357458;28;20479;-61
2024/03/31 09:55:53;;;;;;;23.55;6.20;;;22.80;53.50;;;;;;10397795;28;20129;-60
2024/03/31 10:00:56;;;;;;;15.95;5.50;;;22.60;54.00;;;;;;10389205;28;20480;-60
2024/03/31 10:05:58;;;;;;;15.82;4.93;;;22.50;54.50;;;;;;10411725;28;20416;-60
2024/03/31 10:11:00;;;;;;;16.80;5.68;;;22.40;54.80;;;;;;10364718;28;20456;-59
2024/03/31 10:16:04;;;;;;;19.88;5.25;;;22.50;54.70;;;;;;10363782;28;20053;-61
2024/03/31 10:21:05;;;;;;;14.20;5.30;;;22.70;54.60;;;;;;10356106;28;20494;-57
2024/03/31 10:26:07;;;;;;;16.02;4.85;;;22.60;54.80;;;;;;10355674;28;20052;-59
2024/03/31 10:31:10;;;;;;;19.63;5.28;;;22.80;54.90;;;;;;10355607;28;20050;-61
2024/03/31 10:36:12;;;;;;;16.00;5.30;;;22.80;54.90;;;;;;10360755;28;20465;-62
2024/03/31 10:41:18;;;;;;;15.50;5.13;;;22.80;55.10;;;;;;10381899;28;20046;-62
2024/03/31 10:46:21;;;;;;;13.63;5.30;;;22.80;55.40;;;;;;10348058;28;20054;-62
2024/03/31 10:51:23;;;;;;;12.27;4.93;;;22.80;55.50;;;;;;10353440;28;20042;-63
2024/03/31 10:56:25;;;;;;;13.18;5.05;;;22.70;55.70;;;;;;10358919;28;20160;-61
2024/03/31 11:01:28;;;;;;;16.65;5.60;;;22.80;56.00;;;;;;10359722;28;20053;-61
2024/03/31 11:06:30;;;;;;;14.73;4.57;;;22.80;56.10;;;;;;10348647;28;20050;-61
2024/03/31 11:11:35;;;;;;;15.40;4.90;;;22.70;56.20;;;;;;10362557;28;20057;-60
2024/03/31 11:16:41;;;;;;;13.20;4.90;;;22.80;56.30;;;;;;10358886;28;20519;-59
2024/03/31 11:21:43;;;;;;;12.05;4.68;;;22.80;56.30;;;;;;10356131;28;20150;-59
2024/03/31 11:26:45;;;;;;;13.15;4.60;;;22.80;56.30;;;;;;10359527;28;20921;-57
2024/03/31 11:31:48;;;;;;;8.10;4.22;;;22.90;56.30;;;;;;10357293;28;20054;-58
2024/03/31 11:36:51;;;;;;;13.13;4.75;;;23.00;56.30;;;;;;10354775;28;20133;-54
2024/03/31 11:41:53;;;;;;;12.48;4.88;;;23.10;56.10;;;;;;10353160;28;20049;-56
2024/03/31 11:46:56;;;;;;;10.20;4.13;;;23.10;56.10;;;;;;10352453;28;20423;-57
2024/03/31 11:51:57;;;;;;;9.85;4.35;;;23.30;55.80;;;;;;10348755;28;20050;-58
2024/03/31 11:56:59;;;;;;;11.23;3.55;;;23.20;55.90;;;;;;10343620;28;20052;-60
2024/03/31 12:02:02;;;;;;;9.63;4.20;;;23.20;56.00;;;;;;10354358;28;20057;-55
2024/03/31 12:07:04;;;;;;;8.82;4.50;;;23.20;55.90;;;;;;10357286;28;20055;-55
2024/03/31 12:12:06;;;;;;;7.93;3.83;;;23.20;56.10;;;;;;10365712;28;20092;-58
2024/03/31 12:17:08;;;;;;;7.90;3.60;;;23.20;56.20;;;;;;10378953;28;20137;-55
2024/03/31 12:22:10;;;;;;;8.80;3.47;;;23.30;55.80;;;;;;10349505;28;20052;-58
2024/03/31 12:27:15;;;;;;;8.15;3.20;;;23.20;55.90;;;;;;10355866;28;20046;-58
2024/03/31 12:32:19;;;;;;;11.27;3.80;;;23.10;56.10;;;;;;10351490;28;20049;-61
2024/03/31 12:37:20;;;;;;;7.25;3.40;;;23.10;56.00;;;;;;10358905;28;20050;-60
2024/03/31 12:42:22;;;;;;;7.65;3.47;;;23.10;55.80;;;;;;10360347;28;20057;-61
2024/03/31 12:47:32;;;;;;;5.32;3.20;;;23.20;55.60;;;;;;10358325;28;20088;-62
2024/03/31 12:52:35;;;;;;;5.30;3.10;;;23.20;55.40;;;;;;10355716;28;20081;-60
2024/03/31 12:57:37;;;;;;;6.45;3.20;;;23.20;55.50;;;;;;10352652;28;20405;-60
2024/03/31 13:02:45;;;;;;;6.63;3.70;;;23.10;55.60;;;;;;10351237;28;20050;-60
2024/03/31 13:07:47;;;;;;;5.65;3.05;;;23.20;55.60;;;;;;10351808;28;20535;-54
2024/03/31 13:12:48;;;;;;;7.43;3.10;;;23.20;55.30;;;;;;10348232;28;20132;-61
2024/03/31 13:17:51;;;;;;;6.00;3.40;;;23.30;55.20;;;;;;10355237;28;20042;-59
2024/03/31 13:22:53;;;;;;;4.90;3.00;;;23.20;55.40;;;;;;10353436;28;20045;-61
2024/03/31 13:27:55;;;;;;;5.55;3.22;;;23.10;55.40;;;;;;10358177;28;20046;-59
2024/03/31 13:32:58;;;;;;;4.97;2.92;;;23.30;55.00;;;;;;10356902;28;20058;-60
2024/03/31 13:38:00;;;;;;;5.22;2.92;;;23.30;55.10;;;;;;10359468;28;20423;-62
2024/03/31 13:43:02;;;;;;;4.68;3.00;;;23.80;54.20;;;;;;10362531;28;20046;-62
2024/03/31 13:48:06;;;;;;;5.53;2.92;;;23.90;53.90;;;;;;10352912;28;20137;-62
2024/03/31 13:53:07;;;;;;;3.85;2.42;;;23.90;54.00;;;;;;10356641;28;20489;-58
2024/03/31 13:58:09;;;;;;;4.35;2.40;;;23.90;54.00;;;;;;10355562;28;20129;-57
2024/03/31 14:03:12;;;;;;;3.88;2.45;;;23.80;54.30;;;;;;10354573;28;20595;-60
2024/03/31 14:08:14;;;;;;;5.00;3.05;;;23.90;54.10;;;;;;10351313;28;20132;-58
2024/03/31 14:13:16;;;;;;;4.88;2.78;;;23.90;54.20;;;;;;10349607;28;20052;-60
2024/03/31 14:18:19;;;;;;;3.40;2.50;;;23.70;54.40;;;;;;10344118;28;20177;-57
2024/03/31 14:23:21;;;;;;;3.92;2.38;;;23.70;54.50;;;;;;10346392;28;20096;-59
2024/03/31 14:28:22;;;;;;;3.63;2.28;;;23.80;54.40;;;;;;10345140;28;20046;-60
2024/03/31 14:33:25;;;;;;;3.95;2.50;;;23.60;54.70;;;;;;10352206;28;20080;-61
2024/03/31 14:38:27;;;;;;;5.43;2.60;;;23.60;54.90;;;;;;10354933;28;20065;-60
2024/03/31 14:43:28;;;;;;;3.95;2.42;;;23.50;54.90;;;;;;10354376;28;20046;-58
2024/03/31 14:48:31;;;;;;;4.15;2.55;;;23.60;54.90;;;;;;10357586;28;20496;-59
2024/03/31 14:53:33;;;;;;;2.78;1.98;;;23.50;55.00;;;;;;10356768;28;20053;-59
2024/03/31 14:58:35;;;;;;;4.55;2.15;;;23.50;55.10;;;;;;10352479;28;20057;-59
2024/03/31 15:03:40;;;;;;;2.58;2.17;;;23.50;55.00;;;;;;10350501;28;20092;-61
2024/03/31 15:08:41;;;;;;;2.28;1.90;;;23.60;54.70;;;;;;10354165;28;20592;-58
2024/03/31 15:13:43;;;;;;;3.30;2.00;;;23.70;54.50;;;;;;10356708;28;20415;-58
2024/03/31 15:18:51;;;;;;;3.55;2.08;;;23.60;54.50;;;;;;10367492;28;20133;-59
2024/03/31 15:23:54;;;;;;;3.17;2.17;;;23.90;54.20;;;;;;10348346;28;20054;-59
2024/03/31 15:28:56;;;;;;;2.92;2.05;;;23.90;53.90;;;;;;10344897;28;20054;-58
2024/03/31 15:33:59;;;;;;;2.70;1.90;;;23.90;54.00;;;;;;10341543;28;20597;-61
2024/03/31 15:39:01;;;;;;;3.78;2.20;;;23.90;54.00;;;;;;10346460;28;20132;-64
2024/03/31 15:44:03;;;;;;;2.70;1.88;;;23.80;54.00;;;;;;10350711;28;20054;-55
2024/03/31 15:49:08;;;;;;;3.55;2.03;;;23.70;54.20;;;;;;10350591;28;20066;-56
2024/03/31 15:54:09;;;;;;;2.53;1.75;;;23.70;54.30;;;;;;10350154;28;20049;-56
2024/03/31 15:59:12;;;;;;;2.65;1.83;;;23.80;54.10;;;;;;10354455;28;20053;-55
2024/03/31 16:04:15;;;;;;;2.72;1.77;;;23.80;53.90;;;;;;10352988;28;20137;-54
2024/03/31 16:09:16;;;;;;;2.55;1.80;;;23.80;54.00;;;;;;10357550;28;20054;-52
2024/03/31 16:14:21;;;;;;;2.33;1.60;;;23.60;54.30;;;;;;10367045;28;20045;-60
2024/03/31 16:19:24;;;;;;;5.03;1.88;;;23.50;54.60;;;;;;10374522;28;20129;-59
2024/03/31 16:24:26;;;;;;;5.43;1.90;;;23.60;54.00;;;;;;10388016;28;20053;-60
2024/03/31 16:29:27;;;;;;;5.60;2.22;;;23.70;53.30;;;;;;10371163;28;20054;-59
2024/03/31 16:34:30;;;;;;;2.88;1.83;;;23.50;54.30;;;;;;10363446;28;20437;-57
2024/03/31 16:39:32;;;;;;;7.47;2.00;;;23.30;54.60;;;;;;10353253;28;20106;-58
2024/03/31 16:44:33;;;;;;;4.45;1.73;;;23.80;54.10;;;;;;10352812;28;20046;-52
2024/03/31 16:49:36;;;;;;;5.72;1.77;;;23.50;54.60;;;;;;10348752;28;20042;-59
2024/03/31 16:54:38;;;;;;;3.53;1.70;;;23.50;55.00;;;;;;10350122;28;20064;-57
2024/03/31 16:59:42;;;;;;;1.60;1.17;;;23.60;55.30;;;;;;10355698;28;20141;-60
2024/03/31 17:04:45;;;;;;;4.18;1.65;;;23.60;55.30;;;;;;10356963;28;20042;-58
2024/03/31 17:09:46;;;;;;;4.18;2.22;;;23.50;55.90;;;;;;10360256;28;20133;-56
2024/03/31 17:14:48;;;;;;;8.18;1.50;;;23.60;55.80;;;;;;10360726;28;20042;-57
2024/03/31 17:19:51;;;;;;;7.00;1.95;;;23.60;55.70;;;;;;10364064;28;20056;-53
2024/03/31 17:24:55;;;;;;;3.97;2.30;;;23.30;56.00;;;;;;10362404;28;20140;-61
2024/03/31 17:29:57;;;;;;;7.32;2.50;;;23.40;54.80;;;;;;10387765;28;20045;-61
2024/03/31 17:34:59;;;;;;;6.00;2.55;;;23.60;54.60;;;;;;10406425;28;20060;-61
2024/03/31 17:40:02;;;;;;;8.23;2.65;;;23.60;53.90;;;;;;10404314;28;20488;-61
2024/03/31 17:45:04;;;;;;;10.27;2.90;;;23.50;54.40;;;;;;10402446;28;20076;-64
2024/03/31 17:50:07;;;;;;;6.28;2.40;;;23.30;53.80;;;;;;10397224;28;20041;-65
2024/03/31 17:55:09;;;;;;;6.32;2.80;;;23.30;53.90;;;;;;10391326;28;20045;-64
2024/03/31 18:00:12;;;;;;;11.82;2.70;;;23.30;53.90;;;;;;10388249;28;20046;-63
2024/03/31 18:05:15;;;;;;;7.55;2.30;;;23.50;54.20;;;;;;10398419;28;20056;-64
2024/03/31 18:10:17;;;;;;;12.25;2.72;;;23.80;53.70;;;;;;10389491;28;20068;-61
2024/03/31 18:15:20;;;;;;;6.13;2.10;;;23.60;53.70;;;;;;10394454;28;20064;-64
2024/03/31 18:20:23;;;;;;;4.47;2.03;;;23.40;53.90;;;;;;10396751;28;20140;-58
2024/03/31 18:25:25;;;;;;;10.77;2.40;;;23.40;54.20;;;;;;10401797;28;20041;-64
2024/03/31 18:30:31;;;;;;;5.13;2.17;;;23.30;54.40;;;;;;10398448;28;20053;-60
2024/03/31 18:35:36;;;;;;;4.40;2.00;;;23.30;54.30;;;;;;10396626;28;20080;-62
2024/03/31 18:40:45;;;;;;;6.57;1.83;;;23.30;54.30;;;;;;10393865;28;20176;-62
2024/03/31 18:45:48;;;;;;;7.03;2.00;;;23.50;54.20;;;;;;10396225;28;21038;-61
2024/03/31 18:50:51;;;;;;;8.13;2.22;;;23.20;54.80;;;;;;10358042;28;1078337;-65
2024/03/31 18:55:55;;;;;;;8.02;2.20;;;23.40;54.80;;;;;;10394081;28;20060;-62
2024/03/31 19:00:57;;;;;;;9.35;2.20;;;23.30;55.20;;;;;;10396792;28;20041;-60
2024/03/31 19:06:00;;;;;;;6.78;2.05;;;23.70;54.40;;;;;;10395361;28;20052;-63
2024/03/31 19:11:02;;;;;;;12.90;2.28;;;23.50;54.80;;;;;;10391792;28;20496;-58
2024/03/31 19:16:04;;;;;;;6.30;1.88;;;23.80;54.40;;;;;;10395334;28;20056;-59
2024/03/31 19:21:08;;;;;;;10.73;2.75;;;23.60;54.60;;;;;;10389473;28;20053;-64
2024/03/31 19:26:10;;;;;;;12.30;2.50;;;23.80;54.20;;;;;;10339377;28;20060;-60
2024/03/31 19:31:12;;;;;;;10.68;1.88;;;23.80;54.80;;;;;;10401111;28;20049;-60
2024/03/31 19:36:15;;;;;;;15.02;2.20;;;23.60;55.40;;;;;;10396045;28;20280;-60
2024/03/31 19:41:16;;;;;;;14.85;2.13;;;24.10;54.80;;;;;;10400349;28;20495;-59
2024/03/31 19:46:22;;;;;;;8.98;2.00;;;24.00;55.00;;;;;;10399123;28;20108;-59
2024/03/31 19:51:25;;;;;;;8.15;2.20;;;23.90;55.50;;;;;;10392974;28;20056;-60
2024/03/31 19:56:27;;;;;;;7.25;2.10;;;23.40;56.40;;;;;;10390610;28;20129;-59
2024/03/31 20:01:28;;;;;;;4.40;1.73;;;23.30;57.00;;;;;;10392270;28;20041;-60
2024/03/31 20:06:31;;;;;;;5.22;1.80;;;23.10;57.00;;;;;;10393934;28;20048;-58
2024/03/31 20:11:33;;;;;;;7.32;2.20;;;23.40;56.60;;;;;;10395391;28;20063;-56
2024/03/31 20:16:35;;;;;;;9.25;2.05;;;23.60;56.20;;;;;;10394813;28;20046;-59
2024/03/31 20:21:38;;;;;;;8.63;1.70;;;23.70;55.70;;;;;;10391292;28;20470;-55
2024/03/31 20:26:42;;;;;;;10.77;2.25;;;23.90;55.10;;;;;;10381790;28;20515;-50
2024/03/31 20:31:43;;;;;;;9.27;2.13;;;24.00;54.50;;;;;;10390497;28;20049;-52
2024/03/31 20:36:47;;;;;;;4.78;1.90;;;24.10;53.70;;;;;;10393278;28;20080;-54
2024/03/31 20:41:48;;;;;;;11.07;2.40;;;24.10;53.50;;;;;;10383079;28;20049;-53
2024/03/31 20:46:52;;;;;;;5.25;1.80;;;24.00;54.00;;;;;;10392269;28;20523;-48
2024/03/31 20:51:55;;;;;;;4.57;1.80;;;24.00;53.90;;;;;;10397824;28;20420;-48
2024/03/31 20:56:59;;;;;;;4.57;1.90;;;24.30;52.90;;;;;;10400629;28;20050;-53
2024/03/31 21:02:01;;;;;;;4.97;1.92;;;24.00;53.20;;;;;;10401148;28;20046;-52
2024/03/31 21:07:04;;;;;;;4.75;1.73;;;24.00;53.00;;;;;;10400572;28;20046;-49
2024/03/31 21:12:07;;;;;;;6.20;1.70;;;23.90;53.30;;;;;;10397768;28;20053;-50
2024/03/31 21:17:08;;;;;;;5.00;1.75;;;23.80;53.40;;;;;;10397994;28;20042;-52
2024/03/31 21:22:11;;;;;;;3.88;1.42;;;23.60;53.80;;;;;;10394524;28;20066;-50
2024/03/31 21:27:13;;;;;;;3.60;1.63;;;23.60;53.70;;;;;;10392863;28;20432;-51
2024/03/31 21:32:15;;;;;;;5.57;1.80;;;23.40;53.80;;;;;;10393000;28;20053;-51
2024/03/31 21:37:18;;;;;;;3.75;1.70;;;23.50;53.70;;;;;;10395155;28;20044;-52
2024/03/31 21:42:21;;;;;;;5.70;1.90;;;23.30;53.90;;;;;;10396293;28;20055;-51
2024/03/31 21:47:22;;;;;;;3.30;1.80;;;23.20;54.20;;;;;;10400909;28;20041;-55
2024/03/31 21:52:25;;;;;;;5.07;1.70;;;23.10;54.20;;;;;;10399957;28;20442;-54
2024/03/31 21:57:27;;;;;;;3.03;1.90;;;23.00;55.30;;;;;;10397763;28;20422;-51
2024/03/31 22:02:29;;;;;;;4.82;1.98;;;22.90;56.00;;;;;;10392065;28;20053;-49
2024/03/31 22:07:32;;;;;;;2.72;1.88;;;23.10;55.60;;;;;;10405068;28;20052;-51
2024/03/31 22:12:33;;;;;;;2.70;1.80;;;23.40;55.10;;;;;;10402939;28;20038;-51
2024/03/31 22:17:35;;;;;;;3.75;1.75;;;23.20;55.10;;;;;;10398082;28;20127;-48
2024/03/31 22:22:38;;;;;;;4.20;1.88;;;22.80;56.00;;;;;;10400373;28;20048;-53
2024/03/31 22:27:39;;;;;;;5.53;1.83;;;22.70;56.80;;;;;;10391872;28;20053;-58
2024/03/31 22:32:41;;;;;;;4.38;1.60;;;23.30;54.90;;;;;;10393432;28;20053;-50
2024/03/31 22:37:45;;;;;;;2.22;1.67;;;23.10;55.40;;;;;;10390070;28;20065;-49
2024/03/31 22:42:46;;;;;;;3.58;1.50;;;23.10;55.60;;;;;;10389049;28;20129;-56
2024/03/31 22:47:48;;;;;;;2.00;1.60;;;23.10;55.50;;;;;;10390112;28;20539;-52
2024/03/31 22:52:51;;;;;;;2.00;1.60;;;22.90;56.20;;;;;;10392222;28;20523;-54
2024/03/31 22:57:52;;;;;;;4.38;1.95;;;23.30;55.00;;;;;;10391530;28;20686;-52
2024/03/31 23:02:54;;;;;;;4.82;1.80;;;23.40;54.80;;;;;;10393060;28;20056;-57
2024/03/31 23:07:57;;;;;;;2.85;1.88;;;23.70;53.40;;;;;;10398384;28;20506;-53
2024/03/31 23:12:59;;;;;;;2.58;1.85;;;23.50;53.80;;;;;;10401041;28;20509;-57
2024/03/31 23:18:00;;;;;;;1.67;1.50;;;23.10;54.50;;;;;;10398634;28;20065;-52
2024/03/31 23:23:03;;;;;;;3.05;1.60;;;23.00;54.60;;;;;;10397316;28;20048;-53
2024/03/31 23:28:05;;;;;;;1.92;1.70;;;22.90;54.80;;;;;;10396595;28;20045;-53
2024/03/31 23:33:12;;;;;;;2.08;1.63;;;22.80;54.90;;;;;;10400642;28;20045;-57
2024/03/31 23:38:15;;;;;;;2.63;1.73;;;22.90;54.80;;;;;;10398705;28;20052;-53
2024/03/31 23:43:17;;;;;;;3.70;1.58;;;22.80;55.10;;;;;;10388379;28;20056;-50
2024/03/31 23:48:18;;;;;;;1.83;1.55;;;22.70;55.00;;;;;;10386443;28;20041;-50
2024/03/31 23:53:21;;;;;;;2.58;1.58;;;22.50;55.40;;;;;;10397582;28;20060;-50
2024/03/31 23:58:23;;;;;;;2.08;1.50;;;22.60;55.20;;;;;;10391490;28;20045;-54
